Latest Coastal Weather Observations for Croker Island Airport

IDD60701

Issued at 3:51 am CST Saturday 25 November 2017 (issued every 10 minutes, with the page automatically refreshed every 10 minutes)

About coastal observations | Map of coastal stations | Coastal observations for NT | Marine services | Other Formats
Station Details ID: 014308 Name: CROKER ISLAND AIRPORT Lat: -11.16 Lon: 132.48 Height: 9.2 m
Data from the previous 72 hours. | See also: Recent months at Croker Island Airport
Date/Time
CST
Temp
°C
Wind Pressure Rain since
9am
mm
Weather Cloud Vis
km
Sea
Height
m
Swell
Dir  Spd
kts
Gust
kts
hPa Trend Height
m
Period
s
Dir
25/03:30am 27.4 ENE 2 3 1007.1 - 0.0 - - - - - - -
25/03:00am 27.3 NE 3 3 1006.8 - 0.0 - - - - - - -
25/02:30am 27.1 NE 3 4 1006.8 - 0.0 - - - - - - -
25/02:00am 27.1 NE 3 4 1007.1 - 0.0 - - - - - - -
25/01:30am 27.1 ENE 2 4 1007.3 - 0.0 - - - - - - -
25/01:00am 27.8 NE 3 6 1008.0 - 0.0 - - - - - - -
25/12:30am 27.9 NE 4 7 1008.1 - 0.0 - - - - - - -
25/12:00am 27.5 NE 3 5 1008.2 - 0.0 - - - - - - -
 
Date/Time
CST
Temp
°C
Wind Pressure Rain since
9am
mm
Weather Cloud Vis
km
Sea
Height
m
Swell
Dir  Spd
kts
Gust
kts
hPa Trend Height
m
Period
s
Dir
24/11:30pm 27.9 NE 4 6 1008.4 - 0.0 - - - - - - -
24/11:00pm 27.7 NE 4 6 1008.5 - 0.0 - - - - - - -
24/10:30pm 27.7 ENE 4 5 1008.5 - 0.0 - - - - - - -
24/10:00pm 27.7 ENE 4 5 1008.1 - 0.0 - - - - - - -
24/09:30pm 28.4 NE 6 11 1008.0 - 0.0 - - - - - - -
24/09:00pm 28.2 NE 6 8 1007.8 - 0.0 - - - - - - -
24/08:30pm 28.0 ENE 5 7 1007.8 - 0.0 - - - - - - -
24/08:00pm 28.2 ENE 4 7 1007.5 - 0.0 - - - - - - -
24/07:30pm 28.4 ENE 3 5 1007.1 - 0.0 - - - - - - -
24/07:00pm 28.6 ENE 3 5 1007.0 - 0.0 - - - - - - -
24/06:30pm 29.2 ENE 4 7 1007.1 - 0.0 - - - - - - -
24/06:00pm 29.8 ESE 6 8 1007.1 - 0.0 - - - - - - -
24/05:30pm 30.9 E 7 9 1006.6 - 0.0 - - - - - - -
24/05:00pm 31.4 ENE 6 8 1006.6 - 0.0 - - - - - - -
24/04:30pm 31.8 ENE 7 10 1006.0 - 0.0 - - - - - - -
24/04:00pm 31.8 ENE 7 10 1005.8 - 0.0 - - - - - - -
24/03:30pm 30.8 ENE 7 10 1005.9 - 0.0 - - - - - - -
24/03:00pm 30.9 NE 7 10 1005.9 - 0.0 - - - - - - -
24/02:30pm 31.4 NE 7 10 1006.2 - 0.0 - - - - - - -
24/02:00pm 30.8 NE 7 11 1006.5 - 0.0 - - - - - - -
24/01:30pm 30.8 NE 8 12 1006.8 - 0.0 - - - - - - -
24/01:00pm 31.0 NE 8 11 1007.6 - 0.0 - - - - - - -
24/12:30pm 31.8 NNE 7 11 1008.1 - 0.0 - - - - - - -
24/12:00pm 31.9 NE 9 12 1008.1 - 0.0 - - - - - - -
24/11:30am 31.5 NE 7 11 1008.4 - 0.0 - - - - - - -
24/11:00am 31.6 NE 7 11 1008.5 - 0.0 - - - - - - -
24/10:30am 31.3 ENE 6 8 1008.7 - 0.0 - - - - - - -
24/10:00am 30.6 NE 4 8 1008.9 - 0.0 - - - - - - -
24/09:30am 30.2 ENE 5 7 1008.8 - 0.0 - - - - - - -
24/09:00am 29.8 E 5 8 1008.5 - 33.2 - - - - - - -
24/08:30am 29.5 ENE 3 5 1008.3 - 33.2 - - - - - - -
24/08:00am 28.6 ENE 3 4 1008.0 - 33.2 - - - - - - -
24/07:30am 27.5 E 3 4 1007.8 - 33.2 - - - - - - -
24/07:00am 27.6 NE 4 6 1007.5 - 33.2 - - - - - - -
24/06:30am 27.6 NE 5 8 1007.1 - 33.2 - - - - - - -
24/06:00am 27.5 NNE 5 9 1006.8 - 33.2 - - - - - - -
24/05:30am 26.3 NE 2 3 1006.6 - 33.2 - - - - - - -
24/05:00am 25.5 ENE 1 2 1006.2 - 33.2 - - - - - - -
24/04:30am 25.4 ENE 3 3 1005.4 - 33.2 - - - - - - -
24/04:00am 25.2 ESE 3 4 1004.9 - 33.2 - - - - - - -
24/03:30am 25.2 E 2 2 1004.7 - 33.2 - - - - - - -
24/03:00am 25.2 E 2 3 1004.6 - 33.2 - - - - - - -
24/02:30am 25.4 CALM 0 0 1004.7 - 33.2 - - - - - - -
24/02:00am 25.7 E 3 4 1005.1 - 33.2 - - - - - - -
24/01:30am 26.1 NNE 2 4 1005.5 - 33.2 - - - - - - -
24/01:00am 25.6 NE 2 3 1005.9 - 33.2 - - - - - - -
24/12:30am 25.2 N 3 4 1006.3 - 33.2 - - - - - - -
24/12:00am 24.8 E 5 7 1007.1 - 33.2 Recent precip. - - - - - -
 
Date/Time
CST
Temp
°C
Wind Pressure Rain since
9am
mm
Weather Cloud Vis
km
Sea
Height
m
Swell
Dir  Spd
kts
Gust
kts
hPa Trend Height
m
Period
s
Dir
23/11:30pm 24.9 ENE 6 10 1007.8 - 33.2 - - - - - - -
23/11:00pm 25.6 NE 7 13 1008.3 - 33.0 - - - - - - -
23/10:30pm 25.6 ENE 11 17 1008.6 - 32.8 - - - - - - -
23/10:00pm 25.9 NE 9 13 1008.7 - 32.6 - - - - - - -
23/09:30pm 24.9 NE 5 7 1008.7 - 31.8 - - - - - - -
23/09:00pm 25.0 NE 10 14 1008.4 - 31.0 Rain - - - - - -
23/08:30pm 24.1 NE 7 12 1008.0 - 29.8 - - - - - - -
23/08:00pm 24.3 ENE 10 16 1007.8 - 28.0 - - - - - - -
23/07:30pm 25.3 ESE 11 19 1007.2 - 0.6 - - - - - - -
23/07:00pm 28.8 NE 6 9 1006.6 - 0.0 - - - - - - -
23/06:30pm 29.1 NE 6 10 1006.4 - 0.0 - - - - - - -
23/06:00pm 29.1 NE 7 12 1005.8 - 0.0 - - - - - - -
23/05:30pm 29.4 NE 9 13 1005.3 - 0.0 - - - - - - -
23/05:00pm 29.6 NE 9 15 1005.2 - 0.0 - - - - - - -
23/04:30pm 29.9 NNE 10 15 1004.8 - 0.0 - - - - - - -
23/04:00pm 30.7 NE 9 14 1004.6 - 0.0 - - - - - - -
23/03:30pm 31.8 NE 9 15 1004.2 - 0.0 - - - - - - -
23/03:00pm 32.5 NE 8 12 1004.5 - 0.0 - - - - - - -
23/02:30pm 31.7 NE 8 13 1004.6 - 0.0 - - - - - - -
23/02:00pm 31.5 NE 9 13 1004.9 - 0.0 - - - - - - -
23/01:30pm 31.8 NE 7 12 1005.4 - 0.0 - - - - - - -
23/01:00pm 33.1 ENE 6 11 1005.7 - 0.0 - - - - - - -
23/12:30pm 32.7 NE 6 10 1006.2 - 0.0 - - - - - - -
23/12:00pm 31.7 NE 7 11 1006.8 - 0.0 - - - - - - -
23/11:30am 32.3 NE 7 10 1006.9 - 0.0 - - - - - - -
23/11:00am 32.7 ENE 7 11 1007.2 - 0.0 - - - - - - -
23/10:30am 31.3 ENE 7 11 1007.3 - 0.0 - - - - - - -
23/10:00am 31.4 NE 5 10 1007.2 - 0.0 - - - - - - -
23/09:30am 31.4 NE 5 8 1007.4 - 0.0 - - - - - - -
23/09:00am 30.4 NE 6 9 1007.4 - 0.0 - - - - - - -
23/08:30am 30.3 ENE 5 8 1007.2 - 0.0 - - - - - - -
23/08:00am 29.3 E 3 4 1006.9 - 0.0 - - - - - - -
23/07:30am 28.4 E 3 4 1006.6 - 0.0 - - - - - - -
23/07:00am 27.4 ESE 3 4 1006.1 - 0.0 - - - - - - -
23/06:30am 26.7 ENE 3 3 1005.2 - 0.0 - - - - - - -
23/06:00am 26.6 ENE 3 3 1005.3 - 0.0 - - - - - - -
23/05:30am 27.3 ENE 2 3 1005.1 - 0.0 - - - - - - -
23/05:00am 27.8 NNE 3 4 1005.0 - 0.0 - - - - - - -
23/04:30am 27.0 NNE 1 2 1004.6 - 0.0 - - - - - - -
23/04:00am 27.0 NE 2 3 1004.3 - 0.0 - - - - - - -
23/03:30am 27.0 ENE 3 3 1004.2 - 0.0 - - - - - - -
23/03:00am 26.8 CALM 0 2 1003.9 - 0.0 - - - - - - -
23/02:30am 26.7 CALM 0 1 1004.1 - 0.0 - - - - - - -
23/02:00am 26.8 E 2 2 1004.6 - 0.0 - - - - - - -
23/01:30am 26.9 E 2 3 1004.8 - 0.0 - - - - - - -
23/01:00am 26.9 E 3 4 1005.6 - 0.0 - - - - - - -
23/12:30am 27.0 E 3 4 1005.9 - 0.0 - - - - - - -
23/12:00am 27.2 ESE 3 4 1006.2 - 0.0 - - - - - - -
 
Date/Time
CST
Temp
°C
Wind Pressure Rain since
9am
mm
Weather Cloud Vis
km
Sea
Height
m
Swell
Dir  Spd
kts
Gust
kts
hPa Trend Height
m
Period
s
Dir
22/11:30pm 27.7 E 3 4 1006.6 - 0.0 - - - - - - -
22/11:00pm 27.6 ENE 3 4 1006.5 - 0.0 - - - - - - -
22/10:30pm 27.6 ENE 3 5 1007.1 - 0.0 - - - - - - -
22/10:00pm 27.7 ENE 4 5 1007.1 - 0.0 - - - - - - -
22/09:30pm 27.7 E 4 5 1007.0 - 0.0 - - - - - - -
22/09:00pm 28.1 ENE 4 5 1006.7 - 0.0 - - - - - - -
22/08:30pm 28.3 ENE 3 5 1006.6 - 0.0 - - - - - - -
22/08:00pm 28.5 E 3 4 1006.6 - 0.0 - - - - - - -
22/07:30pm 28.7 ENE 4 6 1005.8 - 0.0 - - - - - - -
22/07:00pm 29.0 ENE 5 8 1005.1 - 0.0 - - - - - - -
22/06:30pm 29.6 NNE 6 9 1004.5 - 0.0 - - - - - - -
22/06:00pm 29.9 NE 5 7 1004.6 - 0.0 - - - - - - -
22/05:30pm 30.0 NE 7 11 1003.9 - 0.0 - - - - - - -
22/05:00pm 30.9 ENE 7 11 1003.8 - 0.0 - - - - - - -
22/04:30pm 31.3 ENE 9 13 1003.5 - 0.0 - - - - - - -
22/04:00pm 32.6 NE 9 13 1003.3 - 0.0 - - - - - - -
22/03:30pm 32.4 NE 7 11 1003.3 - 0.0 - - - - - - -
22/03:00pm 32.7 NE 9 13 1003.4 - 0.0 - - - - - - -
22/02:30pm 33.0 NE 8 13 1003.5 - 0.0 - - - - - - -
22/02:00pm 33.7 ENE 8 12 1004.3 - 0.0 - - - - - - -
22/01:30pm 33.8 ENE 8 14 1004.7 - 0.0 - - - - - - -
22/01:00pm 33.5 ENE 9 15 1005.2 - 0.0 - - - - - - -
22/12:30pm 33.5 ENE 8 13 1005.6 - 0.0 - - - - - - -
22/12:00pm 33.0 NE 8 11 1006.2 - 0.0 - - - - - - -
22/11:30am 33.3 ENE 8 13 1006.6 - 0.0 - - - - - - -
22/11:00am 32.9 ENE 8 13 1006.9 - 0.0 - - - - - - -
22/10:30am 32.5 NE 7 11 1006.8 - 0.0 - - - - - - -
22/10:00am 31.6 NE 7 11 1007.0 - 0.0 - - - - - - -
22/09:30am 31.5 NNE 6 11 1007.1 - 0.0 - - - - - - -
22/09:00am 30.9 NE 6 9 1007.0 - 0.0 - - - - - - -
22/08:30am 30.0 NE 4 6 1007.2 - 0.0 - - - - - - -
22/08:00am 30.3 ENE 4 7 1007.1 - 0.0 - - - - - - -
22/07:30am 29.2 ENE 4 5 1006.6 - 0.0 - - - - - - -
22/07:00am 27.9 E 2 2 1006.2 - 0.0 - - - - - - -
22/06:30am 26.3 E 2 3 1006.0 - 0.0 - - - - - - -
22/06:00am 25.7 E 2 2 1005.7 - 0.0 - - - - - - -
22/05:30am 26.0 ENE 3 4 1005.5 - 0.0 - - - - - - -
22/05:00am 25.6 E 2 3 1005.4 - 0.0 - - - - - - -
22/04:30am 26.1 E 2 3 1005.3 - 0.0 - - - - - - -
22/04:00am 26.2 ENE 2 3 1005.0 - 0.0 - - - - - - -

Other Formats:

Comma delimited format used in spreadsheet applications
http://www.bom.gov.au/fwo/IDD60701/IDD60701.94108.axf

JavaScript Object Notation format (JSON) in row-major order
http://www.bom.gov.au/fwo/IDD60701/IDD60701.94108.json